Time;durP1;ratioP1;P1;durP2;ratioP2;P2;SDS_P1;SDS_P2;PMS_P1;PMS_P2;Temp;Humidity;BMP_temperature;BMP_pressure;BME280_temperature;BME280_humidity;BME280_pressure;Samples;Min_cycle;Max_cycle;Signal;HPM_P1;HPM_P2
2022/07/21 00:02:22;;;;;;;8.73;6.93;;;19.70;99.90;;;;;;10128332;29;20496;-87
2022/07/21 00:07:23;;;;;;;12.27;6.88;;;19.60;99.90;;;;;;10130721;29;20560;-84
2022/07/21 00:12:23;;;;;;;10.25;5.93;;;19.60;99.90;;;;;;10113592;29;20032;-84
2022/07/21 00:17:24;;;;;;;9.48;6.93;;;19.60;99.90;;;;;;10130419;29;20470;-86
2022/07/21 00:22:25;;;;;;;9.70;6.53;;;19.60;99.50;;;;;;10131087;29;20489;-84
2022/07/21 00:27:25;;;;;;;8.55;5.82;;;19.50;99.40;;;;;;10130756;29;20095;-88
2022/07/21 00:32:26;;;;;;;8.25;5.75;;;19.50;99.40;;;;;;10129812;29;20124;-88
2022/07/21 00:37:27;;;;;;;8.13;5.90;;;19.40;99.90;;;;;;10129536;29;20068;-85
2022/07/21 00:42:29;;;;;;;8.85;5.45;;;19.30;99.90;;;;;;10113289;29;20390;-84
2022/07/21 00:47:31;;;;;;;10.38;5.53;;;19.20;99.90;;;;;;10129776;29;20500;-87
2022/07/21 00:52:32;;;;;;;8.38;5.30;;;19.20;99.90;;;;;;10129621;29;20119;-83
2022/07/21 00:57:33;;;;;;;6.13;5.05;;;19.00;99.90;;;;;;10129130;29;20074;-84
2022/07/21 01:02:36;;;;;;;8.32;5.22;;;18.80;99.90;;;;;;10129163;29;20044;-84
2022/07/21 01:07:37;;;;;;;8.48;5.45;;;18.60;99.90;;;;;;10111735;29;20036;-84
2022/07/21 01:12:38;;;;;;;9.18;5.47;;;18.40;99.90;;;;;;10127294;29;20024;-85
2022/07/21 01:17:40;;;;;;;6.95;4.80;;;18.30;99.90;;;;;;10127648;29;20063;-85
2022/07/21 01:22:42;;;;;;;8.10;5.28;;;18.30;99.90;;;;;;10127996;29;20065;-85
2022/07/21 01:27:43;;;;;;;8.10;5.50;;;18.30;99.90;;;;;;10127586;29;20059;-84
2022/07/21 01:32:44;;;;;;;7.68;4.65;;;18.40;99.90;;;;;;10113422;29;20037;-86
2022/07/21 01:37:47;;;;;;;6.32;4.57;;;18.30;99.90;;;;;;10122268;29;20799;-84
2022/07/21 01:42:47;;;;;;;6.30;4.60;;;18.40;99.90;;;;;;10126234;29;20045;-84
2022/07/21 01:47:48;;;;;;;7.78;4.90;;;18.40;99.90;;;;;;10110562;29;20037;-83
2022/07/21 01:52:49;;;;;;;6.70;4.93;;;18.50;99.90;;;;;;10127239;29;20482;-84
2022/07/21 01:57:50;;;;;;;6.75;4.78;;;18.50;99.90;;;;;;10126690;29;20116;-84
2022/07/21 02:02:50;;;;;;;7.47;4.80;;;18.50;99.90;;;;;;10099858;29;20509;-86
2022/07/21 02:07:51;;;;;;;7.65;4.60;;;18.60;99.90;;;;;;10109743;29;20040;-85
2022/07/21 02:12:51;;;;;;;7.03;4.97;;;18.70;99.90;;;;;;10125614;29;20040;-85
2022/07/21 02:17:52;;;;;;;8.00;5.30;;;18.70;99.90;;;;;;10124846;29;20072;-85
2022/07/21 02:22:52;;;;;;;10.73;5.22;;;18.80;99.90;;;;;;10125696;29;20057;-85
2022/07/21 02:27:53;;;;;;;10.95;5.53;;;18.90;99.90;;;;;;10125858;29;20068;-84
2022/07/21 02:32:54;;;;;;;12.25;5.97;;;19.10;99.90;;;;;;10118262;29;20048;-84
2022/07/21 02:37:54;;;;;;;11.05;6.28;;;19.30;99.90;;;;;;10124763;29;20045;-84
2022/07/21 02:42:55;;;;;;;12.30;6.85;;;19.50;99.90;;;;;;10125764;29;20036;-84
2022/07/21 02:47:58;;;;;;;11.82;6.50;;;19.60;99.70;;;;;;10125465;29;20071;-84
2022/07/21 02:53:03;;;;;;;11.27;6.55;;;19.50;99.40;;;;;;10125321;29;20037;-84
2022/07/21 02:58:11;;;;;;;12.05;6.10;;;19.40;99.90;;;;;;10125111;29;20055;-83
2022/07/21 03:03:12;;;;;;;7.85;4.30;;;19.20;99.90;;;;;;10123492;29;20139;-85
2022/07/21 03:08:13;;;;;;;6.55;3.80;;;18.80;99.90;;;;;;10124845;29;20123;-85
2022/07/21 03:13:13;;;;;;;6.85;4.15;;;18.50;99.90;;;;;;10124603;29;20621;-84
2022/07/21 03:18:14;;;;;;;5.75;2.97;;;18.10;99.90;;;;;;10119705;29;20055;-83
2022/07/21 03:23:15;;;;;;;7.63;4.15;;;18.00;99.90;;;;;;10121122;29;20412;-84
2022/07/21 03:28:16;;;;;;;3.33;2.95;;;17.80;99.90;;;;;;10124310;29;20041;-85
2022/07/21 03:33:17;;;;;;;7.47;2.88;;;17.80;99.90;;;;;;10106233;29;20124;-84
2022/07/21 03:38:18;;;;;;;9.38;3.45;;;17.70;99.90;;;;;;10128823;29;20135;-83
2022/07/21 03:43:19;;;;;;;6.28;3.53;;;17.70;99.90;;;;;;10129826;29;20037;-83
2022/07/21 03:48:20;;;;;;;9.32;3.70;;;17.70;99.90;;;;;;10131874;29;20081;-85
2022/07/21 03:53:20;;;;;;;7.88;4.45;;;18.10;99.90;;;;;;10113852;29;20533;-81
2022/07/21 03:58:21;;;;;;;7.13;4.28;;;18.40;99.90;;;;;;10130638;29;20113;-84
2022/07/21 04:03:21;;;;;;;9.45;5.03;;;18.50;99.90;;;;;;10131438;29;20033;-85
2022/07/21 04:08:22;;;;;;;6.85;4.38;;;18.50;99.90;;;;;;10131216;29;20029;-86
2022/07/21 04:13:23;;;;;;;7.70;4.65;;;18.50;99.90;;;;;;10130652;29;20548;-85
2022/07/21 04:18:23;;;;;;;8.18;4.47;;;18.50;99.90;;;;;;10131030;29;20169;-88
2022/07/21 04:23:24;;;;;;;7.10;4.10;;;18.60;99.90;;;;;;10115508;29;20057;-86
2022/07/21 04:28:24;;;;;;;8.07;4.30;;;18.80;99.90;;;;;;10127950;29;20049;-86
2022/07/21 04:33:25;;;;;;;8.25;4.13;;;18.80;99.90;;;;;;10129041;29;20049;-87
2022/07/21 04:38:26;;;;;;;8.50;5.70;;;19.00;99.90;;;;;;10115299;29;20093;-86
2022/07/21 04:43:26;;;;;;;9.85;6.47;;;19.10;99.90;;;;;;10121486;29;20049;-86
2022/07/21 04:48:27;;;;;;;111.03;87.15;;;19.30;99.90;;;;;;10124160;29;20047;-86
2022/07/21 04:53:27;;;;;;;11.93;8.55;;;19.50;99.90;;;;;;10114762;29;20041;-88
2022/07/21 04:58:28;;;;;;;12.27;8.50;;;19.60;99.90;;;;;;10096980;29;20037;-85
2022/07/21 05:03:28;;;;;;;12.80;8.48;;;19.80;99.90;;;;;;10109153;29;20049;-86
2022/07/21 05:08:29;;;;;;;13.85;8.43;;;20.00;99.90;;;;;;10106345;29;20121;-87
2022/07/21 05:13:30;;;;;;;14.07;9.20;;;20.20;99.90;;;;;;10115288;29;20148;-85
2022/07/21 05:18:30;;;;;;;14.38;9.10;;;20.30;99.90;;;;;;10129095;29;20056;-87
2022/07/21 05:23:31;;;;;;;13.00;7.85;;;20.50;99.90;;;;;;10128366;29;20759;-87
2022/07/21 05:28:32;;;;;;;13.40;7.55;;;20.70;99.90;;;;;;10121448;29;20470;-86
2022/07/21 05:33:32;;;;;;;15.00;8.57;;;20.90;99.90;;;;;;10128402;29;20076;-89
2022/07/21 05:38:33;;;;;;;13.70;7.70;;;21.00;99.90;;;;;;10117052;29;20059;-87
2022/07/21 05:43:33;;;;;;;43.78;39.70;;;21.20;99.90;;;;;;10118684;29;20036;-88
2022/07/21 05:48:34;;;;;;;17.38;8.52;;;21.50;99.90;;;;;;10121671;29;20033;-86
2022/07/21 05:53:35;;;;;;;12.65;8.52;;;21.80;99.90;;;;;;10127688;29;20040;-85
2022/07/21 05:58:35;;;;;;;17.52;8.57;;;22.00;99.90;;;;;;10119166;29;20052;-86
2022/07/21 06:03:44;;;;;;;18.77;8.05;;;22.30;99.90;;;;;;10128058;29;20051;-86
2022/07/21 06:08:47;;;;;;;12.80;6.15;;;22.50;99.90;;;;;;10121745;29;20037;-86
2022/07/21 06:13:48;;;;;;;1999.90;999.90;;;22.90;98.30;;;;;;10126805;29;20116;-86
2022/07/21 06:18:49;;;;;;;18.02;8.60;;;23.20;99.90;;;;;;10126613;29;20511;-85
2022/07/21 06:23:49;;;;;;;17.63;7.72;;;23.30;98.70;;;;;;10118563;29;20064;-86
2022/07/21 06:28:50;;;;;;;15.30;7.88;;;23.60;98.40;;;;;;10126684;29;20083;-86
2022/07/21 06:33:51;;;;;;;14.25;7.90;;;23.70;97.80;;;;;;10122250;29;20060;-86
2022/07/21 06:38:51;;;;;;;18.98;8.30;;;23.90;97.10;;;;;;10125068;29;20041;-85
2022/07/21 06:43:52;;;;;;;19.88;8.07;;;24.20;94.70;;;;;;10125720;29;20028;-86
2022/07/21 06:48:53;;;;;;;16.95;8.55;;;24.40;93.10;;;;;;10117229;29;20405;-86
2022/07/21 06:53:53;;;;;;;18.48;8.38;;;24.60;93.20;;;;;;10125276;29;20040;-86
2022/07/21 06:58:54;;;;;;;15.68;8.13;;;24.80;93.60;;;;;;10124934;29;20052;-86
2022/07/21 07:03:55;;;;;;;14.70;8.02;;;25.00;93.70;;;;;;10120884;29;20508;-87
2022/07/21 07:08:55;;;;;;;12.30;4.68;;;25.60;93.70;;;;;;10122815;29;20040;-88
2022/07/21 07:13:56;;;;;;;55.55;10.55;;;27.30;93.80;;;;;;10124782;29;20036;-89
2022/07/21 07:18:56;;;;;;;17.40;5.18;;;28.60;87.50;;;;;;10127210;29;20032;-86
2022/07/21 07:23:57;;;;;;;10.55;5.47;;;29.60;83.60;;;;;;10127777;29;20512;-87
2022/07/21 07:28:58;;;;;;;12.55;5.82;;;30.30;78.50;;;;;;10129537;29;20186;-86
2022/07/21 07:33:58;;;;;;;10.68;6.05;;;30.80;74.90;;;;;;10121529;29;20432;-86
2022/07/21 07:38:59;;;;;;;14.18;6.00;;;31.00;73.90;;;;;;10117629;29;20040;-87
2022/07/21 07:44:00;;;;;;;7.85;5.47;;;31.40;71.90;;;;;;10122142;29;20056;-86
2022/07/21 08:01:27;;;;;;;6.80;5.13;;;30.90;72.70;;;;;;10125599;29;20044;-86
2022/07/21 08:06:27;;;;;;;10.40;5.80;;;30.60;70.60;;;;;;10124497;29;20619;-85
2022/07/21 08:11:28;;;;;;;8.35;5.63;;;30.10;71.20;;;;;;10131077;29;20146;-86
2022/07/21 08:16:29;;;;;;;16.05;7.15;;;30.10;73.10;;;;;;10103355;29;20053;-86
2022/07/21 08:21:30;;;;;;;12.95;7.13;;;30.30;71.60;;;;;;10091113;29;20053;-86
2022/07/21 08:33:48;;;;;;;18.90;9.55;;;30.50;75.10;;;;;;10109319;29;20036;-86
2022/07/21 08:39:27;;;;;;;20.73;10.40;;;30.70;76.70;;;;;;10112287;29;20553;-86
2022/07/21 08:44:56;;;;;;;15.70;8.68;;;31.00;75.40;;;;;;10117414;29;20032;-87
2022/07/21 08:50:17;;;;;;;15.77;6.93;;;31.20;69.10;;;;;;10109051;29;20622;-86
2022/07/21 08:56:13;;;;;;;14.32;6.25;;;31.30;69.80;;;;;;10116789;29;20064;-86
2022/07/21 09:06:56;;;;;;;7.55;4.38;;;31.60;63.20;;;;;;10127528;29;20405;-85
2022/07/21 09:11:58;;;;;;;12.07;4.35;;;31.90;65.10;;;;;;10121861;29;20128;-86
2022/07/21 09:17:01;;;;;;;6.25;4.15;;;31.80;62.60;;;;;;10117962;29;20053;-86
2022/07/21 09:22:05;;;;;;;13.55;4.82;;;31.60;63.70;;;;;;10118580;29;20039;-86
2022/07/21 09:27:16;;;;;;;5.78;4.15;;;31.90;62.70;;;;;;10092408;29;20055;-86
2022/07/21 09:32:18;;;;;;;7.30;4.13;;;32.10;60.10;;;;;;10122780;29;20040;-86
2022/07/21 09:37:21;;;;;;;5.63;4.18;;;32.40;65.40;;;;;;10120882;29;20053;-87
2022/07/21 09:42:28;;;;;;;6.80;4.40;;;32.90;59.00;;;;;;10089554;29;20092;-86
2022/07/21 09:47:31;;;;;;;8.98;5.40;;;32.80;62.70;;;;;;10118905;29;20101;-89
2022/07/21 09:52:35;;;;;;;8.77;4.97;;;32.70;58.60;;;;;;10112744;29;20477;-86
2022/07/21 09:57:35;;;;;;;13.50;5.78;;;32.50;60.80;;;;;;10107997;29;20052;-86
2022/07/21 10:02:36;;;;;;;9.13;5.57;;;32.50;61.00;;;;;;10115017;29;20063;-86
2022/07/21 10:07:39;;;;;;;9.38;5.35;;;32.80;61.10;;;;;;10121410;29;20036;-86
2022/07/21 10:12:40;;;;;;;18.37;6.37;;;33.00;60.40;;;;;;10120320;29;20045;-86
2022/07/21 10:17:41;;;;;;;16.77;6.40;;;32.80;60.00;;;;;;10123704;29;20049;-85
2022/07/21 10:23:18;;;;;;;16.73;6.78;;;33.10;61.00;;;;;;10123653;29;20032;-86
2022/07/21 10:28:27;;;;;;;40.60;23.10;;;33.40;60.90;;;;;;10106595;29;20041;-86
2022/07/21 10:34:01;;;;;;;75.40;44.65;;;33.60;62.20;;;;;;10118463;29;20167;-86
2022/07/21 10:39:12;;;;;;;18.48;9.32;;;33.60;64.00;;;;;;10111896;29;20107;-87
2022/07/21 10:44:28;;;;;;;15.80;6.57;;;33.90;60.80;;;;;;10095792;29;20040;-86
2022/07/21 10:49:52;;;;;;;10.15;5.15;;;34.10;56.60;;;;;;10107302;29;20041;-88
2022/07/21 10:55:45;;;;;;;11.35;5.57;;;33.40;58.40;;;;;;10107929;29;20434;-86
2022/07/21 11:01:00;;;;;;;9.35;5.88;;;33.40;58.10;;;;;;10120591;29;20045;-87
2022/07/21 11:06:06;;;;;;;10.90;5.80;;;33.70;59.30;;;;;;10103777;29;20101;-86
2022/07/21 11:11:10;;;;;;;12.05;5.68;;;33.50;59.50;;;;;;10118695;29;20068;-86
2022/07/21 11:16:10;;;;;;;8.53;5.23;;;33.70;59.20;;;;;;10111934;29;20132;-86
2022/07/21 11:21:14;;;;;;;12.60;5.32;;;33.70;57.40;;;;;;10100558;29;20643;-86
2022/07/21 11:26:17;;;;;;;7.00;4.63;;;33.80;57.80;;;;;;10095587;29;20043;-86
2022/07/21 11:31:24;;;;;;;8.23;4.70;;;33.60;58.60;;;;;;10101692;29;20696;-86
2022/07/21 11:36:30;;;;;;;8.77;4.53;;;33.30;57.10;;;;;;10106467;29;20048;-86
2022/07/21 11:41:32;;;;;;;8.82;4.45;;;33.30;57.60;;;;;;10123881;29;20156;-86
2022/07/21 11:46:56;;;;;;;8.50;4.45;;;33.40;56.30;;;;;;10124488;29;20037;-87
2022/07/21 11:51:58;;;;;;;;;;;33.40;58.50;;;;;;10124378;29;20104;-87
2022/07/21 11:57:00;;;;;;;8.18;4.82;;;33.70;60.80;;;;;;10122856;29;19971;-87
2022/07/21 12:02:16;;;;;;;8.48;4.50;;;33.60;57.00;;;;;;10131769;29;20037;-88
2022/07/21 12:07:24;;;;;;;9.85;4.30;;;33.90;55.90;;;;;;10131446;29;20472;-87
2022/07/21 12:12:35;;;;;;;10.75;4.80;;;34.40;56.40;;;;;;10131483;29;20067;-87
2022/07/21 12:17:46;;;;;;;11.20;4.85;;;34.20;52.60;;;;;;10130787;29;20477;-86
2022/07/21 12:22:47;;;;;;;10.23;4.20;;;33.90;54.40;;;;;;10114226;29;20044;-85
2022/07/21 12:27:49;;;;;;;7.88;3.80;;;33.80;56.40;;;;;;10107152;29;20052;-86
2022/07/21 12:32:50;;;;;;;8.50;4.18;;;33.80;55.60;;;;;;10108321;29;20043;-87
2022/07/21 12:37:59;;;;;;;10.07;4.28;;;34.00;53.80;;;;;;10105537;29;20501;-87
2022/07/21 12:43:04;;;;;;;7.82;4.15;;;34.10;55.40;;;;;;10108855;29;20109;-86
2022/07/21 12:48:20;;;;;;;7.18;4.20;;;34.60;57.30;;;;;;10126625;29;20067;-87
2022/07/21 12:53:20;;;;;;;9.77;3.97;;;35.00;55.80;;;;;;10129941;29;20108;-87
2022/07/21 12:58:21;;;;;;;10.57;4.05;;;35.20;55.20;;;;;;10123235;29;20044;-88
2022/07/21 13:03:22;;;;;;;16.48;5.25;;;35.30;54.30;;;;;;10118981;29;20566;-86
2022/07/21 13:08:23;;;;;;;10.32;5.13;;;35.10;50.50;;;;;;10128222;29;20036;-86
2022/07/21 13:13:26;;;;;;;12.10;4.63;;;34.50;49.80;;;;;;10111932;29;20036;-86
2022/07/21 13:18:26;;;;;;;10.70;4.53;;;34.60;51.40;;;;;;10122848;29;20052;-85
2022/07/21 13:23:27;;;;;;;7.40;4.10;;;34.80;52.20;;;;;;10104406;29;20044;-87
2022/07/21 13:28:28;;;;;;;6.60;3.78;;;34.70;55.60;;;;;;10125673;29;20036;-87
2022/07/21 13:33:28;;;;;;;7.60;4.40;;;34.90;51.80;;;;;;10105264;29;20041;-85
2022/07/21 13:38:29;;;;;;;8.13;3.67;;;34.60;53.70;;;;;;10127869;29;20105;-84
2022/07/21 13:43:30;;;;;;;7.75;3.63;;;34.50;51.80;;;;;;10126422;29;20041;-83
2022/07/21 13:48:31;;;;;;;11.77;4.55;;;34.60;51.90;;;;;;10123704;29;20036;-83
2022/07/21 13:53:32;;;;;;;13.48;5.30;;;34.70;53.80;;;;;;10108665;29;20064;-83
2022/07/21 13:58:33;;;;;;;8.25;4.07;;;34.40;51.80;;;;;;10125355;29;20036;-83
2022/07/21 14:03:34;;;;;;;10.13;4.20;;;34.30;53.10;;;;;;10124159;29;20044;-83
2022/07/21 14:08:35;;;;;;;6.20;3.55;;;34.30;53.40;;;;;;10126509;29;20033;-84
2022/07/21 14:13:37;;;;;;;8.23;3.95;;;34.30;53.80;;;;;;10123402;29;20033;-87
2022/07/21 14:18:37;;;;;;;10.38;4.35;;;34.20;53.20;;;;;;10122640;29;20052;-90
2022/07/21 14:23:38;;;;;;;9.77;4.18;;;33.90;51.70;;;;;;10115584;29;20036;-86
2022/07/21 14:28:39;;;;;;;6.50;3.95;;;33.60;51.80;;;;;;10102190;29;20049;-85
2022/07/21 14:33:41;;;;;;;8.88;3.40;;;33.60;52.50;;;;;;10114675;29;20052;-85
2022/07/21 14:38:42;;;;;;;5.78;3.13;;;33.50;53.00;;;;;;10094120;29;20079;-84
2022/07/21 14:43:43;;;;;;;6.60;3.47;;;33.40;53.00;;;;;;10112639;29;20047;-85
2022/07/21 14:48:45;;;;;;;9.00;3.92;;;33.20;50.80;;;;;;10118386;29;20052;-87
2022/07/21 14:53:46;;;;;;;5.95;3.67;;;33.10;51.60;;;;;;10107905;29;20143;-87
2022/07/21 14:58:47;;;;;;;10.48;3.97;;;33.10;54.10;;;;;;10116863;29;20057;-84
2022/07/21 15:03:48;;;;;;;27.58;16.00;;;33.00;52.30;;;;;;10119720;29;20434;-85
2022/07/21 15:08:49;;;;;;;13.15;5.57;;;32.80;52.60;;;;;;10103102;29;20040;-85
2022/07/21 15:13:49;;;;;;;9.32;3.88;;;32.80;52.80;;;;;;10097858;29;20049;-89
2022/07/21 15:18:50;;;;;;;11.55;4.30;;;32.50;50.80;;;;;;10101045;29;20720;-84
2022/07/21 15:23:51;;;;;;;9.60;3.60;;;32.40;52.40;;;;;;10121484;29;20040;-86
2022/07/21 15:28:52;;;;;;;7.05;3.35;;;32.30;52.30;;;;;;10121315;29;20047;-84
2022/07/21 15:33:53;;;;;;;7.90;3.63;;;32.20;53.30;;;;;;10109784;29;20048;-87
2022/07/21 15:38:54;;;;;;;10.40;3.88;;;32.10;52.80;;;;;;10127504;29;20554;-84
2022/07/21 15:43:54;;;;;;;9.75;4.05;;;32.10;52.10;;;;;;10131314;29;20044;-85
2022/07/21 15:48:55;;;;;;;19.88;4.32;;;31.90;50.60;;;;;;10124735;29;20061;-85
2022/07/21 15:53:56;;;;;;;8.13;3.22;;;31.90;53.00;;;;;;10130784;29;20061;-84
2022/07/21 16:04:16;;;;;;;18.80;15.13;;;31.70;52.60;;;;;;10128267;29;20176;-84
2022/07/21 16:09:17;;;;;;;6.03;3.72;;;31.60;53.70;;;;;;10130021;29;20124;-83
2022/07/21 16:14:17;;;;;;;7.72;4.10;;;31.40;54.70;;;;;;10129388;29;20120;-85
2022/07/21 16:19:23;;;;;;;10.93;3.63;;;31.20;55.10;;;;;;10121020;29;20073;-85
2022/07/21 16:24:24;;;;;;;9.15;3.30;;;30.90;57.10;;;;;;10129125;29;20477;-84
2022/07/21 16:29:24;;;;;;;12.57;4.75;;;30.50;57.40;;;;;;10110281;29;20044;-84
2022/07/21 16:34:27;;;;;;;10.02;4.30;;;29.90;57.30;;;;;;10116114;23;20091;-84
2022/07/21 16:39:28;;;;;;;10.88;5.43;;;29.60;58.60;;;;;;10093622;29;20032;-84
2022/07/21 16:44:29;;;;;;;9.93;3.92;;;29.50;58.80;;;;;;10095086;29;20040;-84
2022/07/21 16:49:29;;;;;;;12.20;4.28;;;29.40;57.20;;;;;;10092531;29;20037;-86
2022/07/21 16:54:30;;;;;;;16.20;4.50;;;29.50;56.50;;;;;;10092577;29;20079;-87
2022/07/21 16:59:31;;;;;;;11.63;4.75;;;29.50;56.70;;;;;;10073850;29;20374;-84
2022/07/21 17:04:32;;;;;;;11.95;4.93;;;29.40;56.60;;;;;;10098354;29;20033;-84
2022/07/21 17:09:32;;;;;;;15.02;5.10;;;29.40;58.90;;;;;;10097830;29;20414;-84
2022/07/21 17:14:34;;;;;;;15.98;4.97;;;29.30;59.30;;;;;;10094376;29;20151;-84
2022/07/21 17:19:35;;;;;;;8.15;4.13;;;29.10;61.40;;;;;;10075723;29;20055;-84
2022/07/21 17:24:36;;;;;;;14.02;4.60;;;28.90;62.40;;;;;;10088769;29;20041;-84
2022/07/21 17:29:36;;;;;;;10.20;4.55;;;28.70;62.90;;;;;;10089626;29;20474;-85
2022/07/21 17:34:37;;;;;;;9.93;4.30;;;28.30;65.40;;;;;;10087822;29;20049;-87
2022/07/21 17:39:39;;;;;;;10.20;3.72;;;27.90;66.00;;;;;;10089125;29;20049;-84
2022/07/21 17:44:39;;;;;;;8.65;3.92;;;27.70;64.10;;;;;;10087813;29;20702;-83
2022/07/21 17:49:40;;;;;;;5.03;3.10;;;27.50;67.70;;;;;;10087698;29;20151;-85
2022/07/21 17:54:41;;;;;;;10.40;3.80;;;27.20;65.70;;;;;;10069927;29;20049;-84
2022/07/21 17:59:44;;;;;;;8.32;3.50;;;27.00;66.80;;;;;;10174988;23;20068;-83
2022/07/21 18:04:45;;;;;;;5.95;3.78;;;26.70;66.30;;;;;;10169501;29;20103;-84
2022/07/21 18:09:46;;;;;;;6.13;3.78;;;26.70;66.00;;;;;;10167838;29;20040;-81
2022/07/21 18:14:47;;;;;;;8.15;3.70;;;26.60;67.70;;;;;;10165824;29;20071;-81
2022/07/21 18:19:48;;;;;;;7.75;3.65;;;26.50;65.90;;;;;;10162755;29;20052;-82
2022/07/21 18:24:49;;;;;;;8.60;3.70;;;26.30;67.70;;;;;;10163260;29;20035;-82
2022/07/21 18:29:50;;;;;;;6.97;3.53;;;26.10;69.80;;;;;;10163537;29;20706;-83
2022/07/21 18:34:50;;;;;;;9.82;3.70;;;25.70;69.90;;;;;;10160180;29;20044;-82
2022/07/21 18:39:51;;;;;;;8.20;3.85;;;25.30;71.20;;;;;;10144813;29;20044;-82
2022/07/21 18:44:52;;;;;;;9.70;4.20;;;24.80;71.70;;;;;;10124745;29;20134;-83
2022/07/21 18:49:53;;;;;;;6.35;3.78;;;24.50;72.20;;;;;;10162350;29;20059;-85
2022/07/21 18:54:53;;;;;;;8.90;3.63;;;24.20;72.60;;;;;;10162957;29;20052;-82
2022/07/21 18:59:57;;;;;;;8.65;4.18;;;24.00;73.80;;;;;;10146454;29;20492;-82
2022/07/21 19:04:58;;;;;;;6.15;3.35;;;23.80;74.40;;;;;;10165103;29;20051;-83
2022/07/21 19:10:00;;;;;;;7.03;3.67;;;23.50;75.10;;;;;;10163120;29;20040;-83
2022/07/21 19:15:02;;;;;;;8.00;3.88;;;23.30;76.60;;;;;;10157405;29;20048;-82
2022/07/21 19:20:03;;;;;;;8.77;4.70;;;23.00;76.60;;;;;;10159918;29;20047;-82
2022/07/21 19:25:05;;;;;;;11.45;4.07;;;22.70;79.00;;;;;;10162660;29;20040;-82
2022/07/21 19:30:07;;;;;;;6.82;4.30;;;22.50;77.30;;;;;;10157666;29;20036;-83
2022/07/21 19:35:08;;;;;;;10.85;4.70;;;22.40;78.00;;;;;;10161554;29;20526;-81
2022/07/21 19:40:09;;;;;;;10.27;4.55;;;22.30;78.80;;;;;;10135223;29;20042;-82
2022/07/21 19:45:10;;;;;;;7.32;4.38;;;22.20;79.60;;;;;;10145252;29;20063;-85
2022/07/21 19:50:11;;;;;;;6.88;3.72;;;22.10;80.10;;;;;;10138256;29;20119;-83
2022/07/21 19:55:12;;;;;;;4.95;3.53;;;21.90;79.90;;;;;;10137499;29;20044;-83
2022/07/21 20:00:17;;;;;;;6.78;3.28;;;21.90;80.30;;;;;;10136129;29;20043;-82
2022/07/21 20:05:18;;;;;;;6.88;3.50;;;21.80;80.50;;;;;;10133415;29;20071;-82
2022/07/21 20:10:19;;;;;;;6.60;3.58;;;21.60;83.20;;;;;;10128267;29;20120;-82
2022/07/21 20:15:19;;;;;;;6.90;4.15;;;21.60;81.60;;;;;;10134673;29;20144;-82
2022/07/21 20:20:20;;;;;;;7.93;3.92;;;21.50;81.30;;;;;;10145589;29;20036;-83
2022/07/21 20:25:21;;;;;;;6.78;3.30;;;21.40;82.70;;;;;;10152307;29;20500;-81
2022/07/21 20:30:22;;;;;;;8.82;2.90;;;21.40;81.80;;;;;;10165753;29;20047;-83
2022/07/21 20:35:23;;;;;;;5.03;3.50;;;21.50;82.10;;;;;;10144179;29;20116;-82
2022/07/21 20:40:24;;;;;;;6.00;3.88;;;21.60;82.40;;;;;;10157356;29;20048;-82
2022/07/21 20:45:25;;;;;;;7.03;4.00;;;21.50;83.60;;;;;;10162568;29;20040;-82
2022/07/21 20:50:26;;;;;;;7.90;4.05;;;21.50;83.10;;;;;;10160432;29;20497;-82
2022/07/21 20:55:27;;;;;;;8.57;4.00;;;21.50;82.70;;;;;;10156762;29;20269;-82
2022/07/21 21:00:27;;;;;;;12.15;5.20;;;21.50;82.70;;;;;;10166975;29;20042;-82
2022/07/21 21:05:28;;;;;;;13.00;4.95;;;21.50;82.10;;;;;;10156079;29;20143;-82
2022/07/21 21:10:29;;;;;;;11.57;5.28;;;21.60;82.00;;;;;;10168371;29;20033;-82
2022/07/21 21:15:30;;;;;;;12.85;5.18;;;21.60;81.60;;;;;;10165678;29;20063;-81
2022/07/21 21:20:31;;;;;;;8.23;4.55;;;21.80;80.80;;;;;;10165486;29;20040;-83
2022/07/21 21:25:32;;;;;;;13.98;5.10;;;21.80;81.40;;;;;;10145831;29;20032;-83
2022/07/21 21:30:32;;;;;;;9.25;4.88;;;21.70;82.00;;;;;;10163474;29;20080;-81
2022/07/21 21:35:33;;;;;;;13.90;5.63;;;21.50;82.40;;;;;;10165419;29;20044;-83
2022/07/21 21:40:34;;;;;;;10.07;5.30;;;21.30;83.00;;;;;;10142862;29;20100;-82
2022/07/21 21:45:35;;;;;;;9.52;5.07;;;21.10;83.40;;;;;;10159789;29;20039;-82
2022/07/21 21:50:36;;;;;;;9.15;5.45;;;21.10;83.30;;;;;;10163877;29;20084;-81
2022/07/21 21:55:36;;;;;;;12.13;5.75;;;21.00;83.90;;;;;;10183014;23;20059;-84
2022/07/21 22:00:37;;;;;;;11.05;6.15;;;20.90;83.80;;;;;;10154179;29;20059;-83
2022/07/21 22:05:38;;;;;;;16.05;6.88;;;20.90;83.80;;;;;;10150082;29;20032;-82
2022/07/21 22:10:39;;;;;;;14.98;7.18;;;20.90;84.00;;;;;;10151102;29;20044;-83
2022/07/21 22:15:40;;;;;;;14.80;7.13;;;20.80;84.60;;;;;;10155403;29;20048;-82
2022/07/21 22:20:42;;;;;;;16.48;7.75;;;20.70;85.50;;;;;;10152807;29;20040;-83
2022/07/21 22:25:43;;;;;;;18.23;8.13;;;20.60;86.00;;;;;;10138950;29;20040;-83
2022/07/21 22:30:44;;;;;;;17.15;8.18;;;20.50;86.40;;;;;;10154880;29;20508;-84
2022/07/21 22:35:45;;;;;;;13.75;7.20;;;20.30;86.60;;;;;;10161616;29;20040;-85
2022/07/21 22:40:45;;;;;;;15.15;8.07;;;20.20;87.60;;;;;;10159807;29;20106;-83
2022/07/21 22:45:46;;;;;;;13.65;7.75;;;20.00;87.70;;;;;;10160984;29;20036;-80
2022/07/21 22:50:47;;;;;;;13.15;7.68;;;20.00;88.00;;;;;;10147033;29;20103;-81
2022/07/21 22:55:47;;;;;;;15.50;7.25;;;19.90;88.20;;;;;;10162971;29;20060;-81
2022/07/21 23:00:48;;;;;;;13.85;7.38;;;19.80;88.80;;;;;;10159661;29;20098;-81
2022/07/21 23:05:49;;;;;;;12.38;6.40;;;19.70;88.90;;;;;;10163449;29;20040;-81
2022/07/21 23:10:50;;;;;;;15.43;6.10;;;19.70;88.90;;;;;;10162230;29;20090;-81
2022/07/21 23:15:50;;;;;;;13.30;6.30;;;19.70;88.90;;;;;;10162676;29;20103;-81
2022/07/21 23:20:51;;;;;;;12.20;5.40;;;19.60;89.90;;;;;;10162151;29;20124;-82
2022/07/21 23:25:51;;;;;;;12.35;5.15;;;19.60;89.40;;;;;;10158783;29;20043;-81
2022/07/21 23:30:52;;;;;;;70.53;10.35;;;19.50;89.50;;;;;;10162012;29;20114;-80
2022/07/21 23:35:52;;;;;;;9.40;4.13;;;19.50;89.50;;;;;;10162894;29;20056;-82
2022/07/21 23:40:53;;;;;;;8.73;4.35;;;19.60;90.20;;;;;;10161985;29;20040;-81
2022/07/21 23:45:54;;;;;;;8.95;4.22;;;19.50;90.20;;;;;;10162387;29;20048;-82
2022/07/21 23:50:56;;;;;;;11.60;5.15;;;19.40;90.00;;;;;;10160621;29;20107;-81
2022/07/21 23:55:56;;;;;;;8.90;3.65;;;19.40;90.40;;;;;;10163105;29;20864;-81
